createdAt,value
2017-05-21T00:01:13.652Z,14.20
2017-05-21T00:03:41.570Z,14.10
2017-05-21T00:06:09.305Z,14.10
2017-05-21T00:08:36.780Z,14.00
2017-05-21T00:11:04.694Z,14.10
2017-05-21T00:13:33.467Z,14.10
2017-05-21T00:16:00.950Z,14.00
2017-05-21T00:18:28.871Z,13.90
2017-05-21T00:20:56.745Z,13.90
2017-05-21T00:23:24.618Z,13.90
2017-05-21T00:25:52.529Z,13.90
2017-05-21T00:28:20.407Z,13.90
2017-05-21T00:30:47.894Z,13.90
2017-05-21T00:33:15.830Z,13.90
2017-05-21T00:35:43.703Z,13.90
2017-05-21T00:38:11.198Z,13.90
2017-05-21T00:40:39.018Z,13.90
2017-05-21T00:43:06.903Z,13.80
2017-05-21T00:45:34.805Z,13.80
2017-05-21T00:48:02.315Z,13.80
2017-05-21T00:50:29.797Z,13.70
2017-05-21T00:52:57.679Z,13.80
2017-05-21T00:55:25.687Z,13.70
2017-05-21T00:57:53.559Z,13.70
2017-05-21T01:00:21.056Z,13.70
2017-05-21T01:02:48.965Z,13.70
2017-05-21T01:05:16.849Z,13.70
2017-05-21T01:07:44.344Z,13.70
2017-05-21T01:10:12.260Z,13.60
2017-05-21T01:12:40.145Z,13.50
2017-05-21T01:15:08.022Z,13.50
2017-05-21T01:17:35.933Z,13.30
2017-05-21T01:20:03.809Z,13.40
2017-05-21T01:22:31.693Z,13.40
2017-05-21T01:24:59.598Z,13.30
2017-05-21T01:27:27.086Z,13.30
2017-05-21T01:29:54.962Z,13.30
2017-05-21T01:32:23.138Z,13.30
2017-05-21T01:34:50.622Z,13.30
2017-05-21T01:37:18.525Z,13.20
2017-05-21T01:39:46.734Z,13.00
2017-05-21T01:42:14.220Z,13.00
2017-05-21T01:44:42.102Z,13.00
2017-05-21T01:47:10.194Z,13.10
2017-05-21T01:49:37.674Z,13.20
2017-05-21T01:52:05.174Z,13.00
2017-05-21T01:54:33.217Z,13.00
2017-05-21T01:57:00.708Z,13.00
2017-05-21T01:59:28.596Z,12.80
2017-05-21T02:01:56.526Z,13.10
2017-05-21T02:04:24.399Z,13.10
2017-05-21T02:06:52.306Z,13.10
2017-05-21T02:09:20.191Z,13.10
2017-05-21T02:11:47.676Z,13.10
2017-05-21T02:14:15.508Z,13.20
2017-05-21T02:16:43.476Z,13.10
2017-05-21T02:19:10.924Z,13.10
2017-05-21T02:21:38.776Z,13.10
2017-05-21T02:24:06.660Z,13.00
2017-05-21T02:26:34.514Z,12.90
2017-05-21T02:29:02.364Z,12.90
2017-05-21T02:31:30.266Z,12.90
2017-05-21T02:33:58.432Z,13.00
2017-05-21T02:36:26.285Z,13.00
2017-05-21T02:38:54.441Z,13.00
2017-05-21T02:41:22.292Z,12.90
2017-05-21T02:43:50.141Z,12.70
2017-05-21T02:46:18.020Z,12.60
2017-05-21T02:48:45.874Z,12.50
2017-05-21T02:51:13.724Z,12.70
2017-05-21T02:53:41.612Z,12.80
2017-05-21T02:56:09.459Z,12.80
2017-05-21T02:58:37.309Z,12.90
2017-05-21T03:01:05.169Z,12.90
2017-05-21T03:03:33.015Z,12.90
2017-05-21T03:06:00.866Z,12.70
2017-05-21T03:08:28.594Z,12.70
2017-05-21T03:10:56.448Z,12.70
2017-05-21T03:13:24.345Z,12.80
2017-05-21T03:15:52.497Z,12.70
2017-05-21T03:18:21.373Z,12.70
2017-05-21T03:20:48.816Z,12.70
2017-05-21T03:23:16.291Z,12.70
2017-05-21T03:25:44.154Z,12.80
2017-05-21T03:28:12.000Z,12.80
2017-05-21T03:30:40.192Z,12.70
2017-05-21T03:33:08.049Z,12.70
2017-05-21T03:35:35.904Z,12.70
2017-05-21T03:38:04.107Z,12.70
2017-05-21T03:40:31.957Z,12.70
2017-05-21T03:42:59.804Z,12.70
2017-05-21T03:45:27.506Z,12.70
2017-05-21T03:47:55.349Z,12.70
2017-05-21T03:50:23.204Z,12.70
2017-05-21T03:52:51.395Z,12.80
2017-05-21T03:55:19.243Z,12.80
2017-05-21T03:57:47.093Z,12.90
2017-05-21T04:00:14.990Z,13.00
2017-05-21T04:02:42.832Z,13.00
2017-05-21T04:05:10.291Z,13.00
2017-05-21T04:07:38.264Z,12.90
2017-05-21T04:10:05.725Z,12.90
2017-05-21T04:12:33.572Z,13.00
2017-05-21T04:15:01.457Z,13.00
2017-05-21T04:17:29.303Z,13.10
2017-05-21T04:19:57.153Z,13.10
2017-05-21T04:22:25.052Z,13.00
2017-05-21T04:24:52.902Z,13.00
2017-05-21T04:27:20.745Z,13.00
2017-05-21T04:29:48.944Z,13.10
2017-05-21T04:32:16.795Z,13.20
2017-05-21T04:34:44.653Z,13.20
2017-05-21T04:37:12.549Z,13.10
2017-05-21T04:39:40.405Z,13.10
2017-05-21T04:42:08.248Z,12.60
2017-05-21T04:44:36.212Z,12.50
2017-05-21T04:47:03.673Z,12.50
2017-05-21T04:49:31.532Z,12.70
2017-05-21T04:51:59.633Z,12.80
2017-05-21T04:54:27.483Z,12.90
2017-05-21T04:56:55.333Z,12.80
2017-05-21T04:59:22.800Z,12.80
2017-05-21T05:01:50.661Z,13.20
2017-05-21T05:04:18.515Z,13.10
2017-05-21T05:06:46.687Z,13.00
2017-05-21T05:09:14.538Z,13.00
2017-05-21T05:11:42.398Z,13.00
2017-05-21T05:14:10.277Z,12.80
2017-05-21T05:16:38.775Z,12.70
2017-05-21T05:19:06.631Z,12.80
2017-05-21T05:21:34.505Z,12.90
2017-05-21T05:24:01.960Z,12.90
2017-05-21T05:26:29.808Z,12.60
2017-05-21T05:28:57.479Z,12.60
2017-05-21T05:31:25.332Z,13.10
2017-05-21T05:33:53.276Z,13.10
2017-05-21T05:36:21.395Z,13.20
2017-05-21T05:38:49.243Z,13.00
2017-05-21T05:41:17.100Z,13.00
2017-05-21T05:43:45.590Z,13.00
2017-05-21T05:46:13.448Z,13.20
2017-05-21T05:48:41.304Z,13.40
2017-05-21T05:51:09.271Z,13.50
2017-05-21T05:53:37.120Z,13.60
2017-05-21T05:56:04.982Z,13.80
2017-05-21T05:58:32.550Z,13.80
2017-05-21T06:01:00.407Z,14.00
2017-05-21T06:03:28.254Z,14.20
2017-05-21T06:05:56.148Z,14.20
2017-05-21T06:08:23.996Z,14.20
2017-05-21T06:10:52.194Z,14.20
2017-05-21T06:13:20.178Z,14.10
2017-05-21T06:15:48.034Z,14.30
2017-05-21T06:18:15.896Z,14.40
2017-05-21T06:20:43.784Z,14.30
2017-05-21T06:23:11.637Z,14.50
2017-05-21T06:25:39.512Z,14.60
2017-05-21T06:28:07.402Z,14.70
2017-05-21T06:30:34.860Z,14.70
2017-05-21T06:33:02.713Z,14.90
2017-05-21T06:35:30.836Z,14.90
2017-05-21T06:37:58.701Z,15.00
2017-05-21T06:40:26.783Z,15.20
2017-05-21T06:42:54.756Z,15.30
2017-05-21T06:45:22.608Z,15.40
2017-05-21T06:47:50.474Z,15.60
2017-05-21T06:50:18.603Z,15.60
2017-05-21T06:52:46.459Z,15.60
2017-05-21T06:55:15.483Z,15.80
2017-05-21T06:57:43.706Z,16.10
2017-05-21T07:00:11.580Z,16.30
2017-05-21T07:02:39.588Z,16.30
2017-05-21T07:05:07.805Z,16.40
2017-05-21T07:07:35.261Z,16.40
2017-05-21T07:10:03.108Z,16.70
2017-05-21T07:12:30.985Z,16.60
2017-05-21T07:14:58.853Z,16.80
2017-05-21T07:17:26.697Z,16.70
2017-05-21T07:19:54.184Z,16.70
2017-05-21T07:22:22.032Z,17.10
2017-05-21T07:24:49.887Z,17.00
2017-05-21T07:27:17.363Z,17.00
2017-05-21T07:29:45.215Z,16.90
2017-05-21T07:32:13.516Z,16.90
2017-05-21T07:34:42.053Z,17.10
2017-05-21T07:37:09.918Z,17.10
2017-05-21T07:39:38.025Z,17.30
2017-05-21T07:42:06.622Z,17.60
2017-05-21T07:44:34.480Z,17.40
2017-05-21T07:47:02.358Z,17.20
2017-05-21T07:49:30.514Z,17.20
2017-05-21T07:51:58.385Z,17.40
2017-05-21T07:54:25.859Z,17.40
2017-05-21T07:56:53.742Z,17.70
2017-05-21T07:59:21.614Z,17.90
2017-05-21T08:01:49.472Z,18.10
2017-05-21T08:04:17.707Z,18.40
2017-05-21T08:06:45.566Z,18.60
2017-05-21T08:09:13.426Z,18.30
2017-05-21T08:11:41.583Z,18.40
2017-05-21T08:14:09.037Z,18.40
2017-05-21T08:16:36.895Z,18.00
2017-05-21T08:19:04.380Z,18.00
2017-05-21T08:21:32.238Z,18.30
2017-05-21T08:24:00.099Z,18.40
2017-05-21T08:26:28.052Z,18.20
2017-05-21T08:28:55.505Z,18.20
2017-05-21T08:31:23.374Z,18.10
2017-05-21T08:33:51.155Z,18.10
2017-05-21T08:36:18.600Z,18.40
2017-05-21T08:38:47.530Z,18.80
2017-05-21T08:41:15.426Z,19.20
2017-05-21T08:43:43.289Z,18.90
2017-05-21T08:46:10.741Z,18.90
2017-05-21T08:48:38.655Z,18.90
2017-05-21T08:51:06.497Z,18.70
2017-05-21T08:53:34.198Z,18.70
2017-05-21T08:56:02.415Z,19.00
2017-05-21T08:58:30.677Z,19.00
2017-05-21T09:00:58.270Z,19.00
2017-05-21T09:03:26.156Z,20.20
2017-05-21T09:05:54.143Z,20.30
2017-05-21T09:08:23.728Z,20.30
2017-05-21T09:10:51.846Z,20.20
2017-05-21T09:13:19.805Z,20.20
2017-05-21T09:15:49.885Z,20.40
2017-05-21T09:18:20.460Z,20.50
2017-05-21T09:20:47.918Z,20.50
2017-05-21T09:23:15.760Z,21.10
2017-05-21T09:25:43.904Z,20.90
2017-05-21T09:28:11.776Z,21.00
2017-05-21T09:30:39.632Z,20.50
2017-05-21T09:33:07.532Z,20.30
2017-05-21T09:35:35.904Z,20.60
2017-05-21T09:38:03.762Z,20.90
2017-05-21T09:40:31.994Z,21.60
2017-05-21T09:43:00.375Z,21.40
2017-05-21T09:45:28.230Z,21.90
2017-05-21T09:47:56.119Z,22.00
2017-05-21T09:50:23.975Z,22.30
2017-05-21T09:52:51.447Z,22.30
2017-05-21T09:55:19.352Z,22.50
2017-05-21T09:57:47.321Z,22.40
2017-05-21T10:00:15.179Z,22.60
2017-05-21T10:02:44.166Z,22.20
2017-05-21T10:05:11.659Z,22.20
2017-05-21T10:07:39.113Z,22.40
2017-05-21T10:10:07.201Z,21.20
2017-05-21T10:12:35.245Z,20.80
2017-05-21T10:15:03.094Z,21.10
2017-05-21T10:17:30.958Z,21.40
2017-05-21T10:19:58.865Z,20.10
2017-05-21T10:22:26.314Z,20.10
2017-05-21T10:24:54.161Z,19.80
2017-05-21T10:27:22.032Z,20.20
2017-05-21T10:29:49.891Z,20.70
2017-05-21T10:32:17.744Z,20.70
2017-05-21T10:34:45.628Z,20.70
2017-05-21T10:37:13.508Z,20.70
2017-05-21T10:39:40.943Z,20.70
2017-05-21T10:42:08.806Z,21.70
2017-05-21T10:44:37.292Z,22.10
2017-05-21T10:47:05.135Z,22.20
2017-05-21T10:49:32.602Z,22.20
2017-05-21T10:52:00.495Z,22.90
2017-05-21T10:54:28.350Z,23.10
2017-05-21T10:56:56.211Z,23.60
2017-05-21T10:59:24.468Z,24.50
2017-05-21T11:01:52.312Z,24.30
2017-05-21T11:04:20.177Z,24.30
2017-05-21T11:06:48.282Z,24.40
2017-05-21T11:09:16.152Z,24.50
2017-05-21T11:11:44.003Z,24.50
2017-05-21T11:14:11.904Z,24.30
2017-05-21T11:16:39.758Z,23.80
2017-05-21T11:19:07.604Z,22.90
2017-05-21T11:21:35.498Z,22.70
2017-05-21T11:24:02.971Z,22.60
2017-05-21T11:26:30.829Z,22.90
2017-05-21T11:28:58.716Z,22.50
2017-05-21T11:31:26.566Z,22.10
2017-05-21T11:33:54.429Z,21.60
2017-05-21T11:36:22.343Z,21.60
2017-05-21T11:38:50.205Z,21.80
2017-05-21T11:41:18.061Z,23.00
2017-05-21T11:43:45.959Z,23.30
2017-05-21T11:46:13.423Z,23.30
2017-05-21T11:48:41.378Z,22.70
2017-05-21T11:51:24.936Z,23.00
2017-05-21T11:53:52.775Z,23.70
2017-05-21T11:56:21.698Z,22.60
2017-05-21T11:58:49.604Z,21.50
2017-05-21T12:01:17.084Z,21.50
2017-05-21T12:03:44.949Z,21.00
2017-05-21T12:06:13.128Z,21.40
2017-05-21T12:08:40.987Z,21.90
2017-05-21T12:11:08.856Z,22.50
2017-05-21T12:13:36.738Z,24.30
2017-05-21T12:16:04.965Z,24.70
2017-05-21T12:18:32.815Z,24.10
2017-05-21T12:21:01.119Z,24.20
2017-05-21T12:23:28.584Z,24.10
2017-05-21T12:25:56.696Z,25.90
2017-05-21T12:28:24.837Z,23.70
2017-05-21T12:30:52.669Z,23.50
2017-05-21T12:33:20.532Z,23.70
2017-05-21T12:35:48.412Z,24.10
2017-05-21T12:38:15.874Z,24.10
2017-05-21T12:40:43.739Z,26.10
2017-05-21T12:43:11.613Z,26.90
2017-05-21T12:45:39.063Z,26.80
2017-05-21T12:48:06.535Z,27.30
2017-05-21T12:50:34.839Z,26.90
2017-05-21T12:53:02.679Z,25.50
2017-05-21T12:55:30.872Z,25.20
2017-05-21T12:57:59.072Z,24.70
2017-05-21T13:00:27.548Z,24.30
2017-05-21T13:02:55.393Z,23.90
2017-05-21T13:05:24.136Z,23.70
2017-05-21T13:07:52.007Z,23.60
2017-05-21T13:10:19.874Z,23.60
2017-05-21T13:12:47.740Z,24.60
2017-05-21T13:15:15.584Z,26.20
2017-05-21T13:17:43.451Z,26.70
2017-05-21T13:20:11.600Z,26.40
2017-05-21T13:22:39.463Z,26.00
2017-05-21T13:25:07.327Z,24.90
2017-05-21T13:27:35.210Z,24.20
2017-05-21T13:30:03.060Z,24.80
2017-05-21T13:32:30.625Z,24.80
2017-05-21T13:34:58.505Z,24.80
2017-05-21T13:37:26.416Z,25.40
2017-05-21T13:39:54.286Z,25.60
2017-05-21T13:42:22.458Z,26.40
2017-05-21T13:44:50.310Z,26.50
2017-05-21T13:47:18.178Z,24.70
2017-05-21T13:49:48.237Z,24.80
2017-05-21T13:52:15.684Z,24.80
2017-05-21T13:54:43.523Z,26.20
2017-05-21T13:57:11.413Z,27.00
2017-05-21T13:59:39.271Z,28.10
2017-05-21T14:02:07.375Z,28.50
2017-05-21T14:04:35.268Z,28.40
2017-05-21T14:07:02.715Z,28.40
2017-05-21T14:09:30.579Z,26.80
2017-05-21T14:11:58.549Z,26.40
2017-05-21T14:14:26.410Z,27.50
2017-05-21T14:16:54.278Z,28.00
2017-05-21T14:19:22.408Z,28.50
2017-05-21T14:21:51.609Z,28.00
2017-05-21T14:24:19.457Z,27.00
2017-05-21T14:26:47.304Z,25.70
2017-05-21T14:29:15.957Z,26.00
2017-05-21T14:31:43.805Z,25.70
2017-05-21T14:34:11.652Z,24.30
2017-05-21T14:36:39.515Z,24.40
2017-05-21T14:39:06.964Z,24.40
2017-05-21T14:41:35.069Z,24.40
2017-05-21T14:44:02.787Z,23.90
2017-05-21T14:46:30.648Z,23.80
2017-05-21T14:48:58.099Z,23.80
2017-05-21T14:51:25.986Z,24.20
2017-05-21T14:53:53.849Z,24.80
2017-05-21T14:56:21.693Z,24.90
2017-05-21T14:58:49.563Z,24.80
2017-05-21T15:01:17.022Z,24.80
2017-05-21T15:03:44.880Z,24.40
2017-05-21T15:06:12.892Z,24.20
2017-05-21T15:08:40.749Z,24.30
2017-05-21T15:11:08.609Z,24.20
2017-05-21T15:13:37.115Z,23.90
2017-05-21T15:16:04.971Z,23.80
2017-05-21T15:18:32.813Z,23.50
2017-05-21T15:21:01.464Z,23.40
2017-05-21T15:23:28.931Z,23.40
2017-05-21T15:25:56.787Z,23.60
2017-05-21T15:28:24.265Z,23.60
2017-05-21T15:30:52.127Z,23.50
2017-05-21T15:33:19.971Z,23.20
2017-05-21T15:35:49.914Z,23.10
2017-05-21T15:38:17.772Z,23.00
2017-05-21T15:40:45.432Z,23.00
2017-05-21T15:43:14.585Z,22.80
2017-05-21T15:45:42.439Z,22.70
2017-05-21T15:48:11.858Z,22.50
2017-05-21T15:50:39.732Z,22.30
2017-05-21T15:53:07.198Z,22.30
2017-05-21T15:55:34.654Z,22.10
2017-05-21T15:58:02.843Z,22.00
2017-05-21T16:00:30.310Z,22.00
2017-05-21T16:02:58.169Z,22.00
2017-05-21T16:05:26.297Z,22.20
2017-05-21T16:07:54.148Z,22.20
2017-05-21T16:10:22.002Z,22.30
2017-05-21T16:12:49.887Z,22.10
2017-05-21T16:15:17.362Z,22.10
2017-05-21T16:17:45.218Z,21.90
2017-05-21T16:20:13.321Z,21.70
2017-05-21T16:22:41.443Z,21.80
2017-05-21T16:25:09.306Z,21.80
2017-05-21T16:27:37.683Z,21.80
2017-05-21T16:30:05.523Z,21.80
2017-05-21T16:32:33.387Z,22.00
2017-05-21T16:35:00.864Z,22.00
2017-05-21T16:37:28.727Z,22.00
2017-05-21T16:39:56.583Z,21.80
2017-05-21T16:42:24.550Z,21.80
2017-05-21T16:44:52.424Z,21.90
2017-05-21T16:47:20.279Z,21.90
2017-05-21T16:49:48.166Z,22.00
2017-05-21T16:55:18.627Z,21.60
2017-05-21T16:57:52.353Z,21.60
2017-05-21T17:00:28.437Z,21.60
2017-05-21T17:03:03.553Z,21.40
2017-05-21T17:05:33.725Z,21.40
2017-05-21T17:08:03.830Z,21.40
2017-05-21T17:10:32.152Z,21.30
2017-05-21T17:13:01.296Z,21.20
2017-05-21T17:15:30.399Z,21.20
2017-05-21T17:17:59.797Z,21.20
2017-05-21T17:20:27.921Z,21.10
2017-05-21T17:22:56.062Z,21.00
2017-05-21T17:25:24.249Z,20.90
2017-05-21T17:27:52.492Z,20.90
2017-05-21T17:30:20.407Z,20.90
2017-05-21T17:32:48.457Z,20.80
2017-05-21T17:35:16.394Z,20.90
2017-05-21T17:37:44.303Z,20.90
2017-05-21T17:40:12.337Z,20.80
2017-05-21T17:42:40.029Z,20.90
2017-05-21T17:45:08.132Z,20.70
2017-05-21T17:47:36.656Z,20.80
2017-05-21T17:50:05.783Z,20.70
2017-05-21T17:52:34.019Z,20.70
2017-05-21T17:55:02.212Z,20.60
2017-05-21T17:57:32.354Z,20.70
2017-05-21T18:00:00.584Z,20.70
2017-05-21T18:02:30.409Z,20.60
2017-05-21T18:04:59.278Z,20.50
2017-05-21T18:07:27.632Z,20.40
2017-05-21T18:09:55.853Z,20.40
2017-05-21T18:12:24.739Z,20.50
2017-05-21T18:14:52.592Z,20.50
2017-05-21T18:17:20.440Z,20.40
2017-05-21T18:19:48.751Z,20.30
2017-05-21T18:22:16.971Z,20.20
2017-05-21T18:24:45.189Z,20.30
2017-05-21T18:27:13.465Z,20.30
2017-05-21T18:29:41.779Z,20.20
2017-05-21T18:32:10.103Z,20.10
2017-05-21T18:34:39.379Z,20.10
2017-05-21T18:37:08.354Z,20.10
2017-05-21T18:39:36.748Z,20.10
2017-05-21T18:42:05.051Z,20.00
2017-05-21T18:44:33.855Z,20.00
2017-05-21T18:47:02.095Z,20.00
2017-05-21T18:49:30.909Z,20.00
2017-05-21T18:51:59.196Z,19.90
2017-05-21T18:54:28.463Z,19.70
2017-05-21T18:56:57.136Z,19.70
2017-05-21T18:59:26.268Z,19.70
2017-05-21T19:01:55.570Z,19.70
2017-05-21T19:04:24.219Z,19.70
2017-05-21T19:06:52.590Z,19.50
2017-05-21T19:09:20.883Z,19.40
2017-05-21T19:11:49.482Z,19.30
2017-05-21T19:14:17.891Z,19.20
2017-05-21T19:16:46.246Z,19.20
2017-05-21T19:19:14.833Z,19.00
2017-05-21T19:21:43.883Z,18.80
2017-05-21T19:24:12.215Z,18.70
2017-05-21T19:26:40.858Z,18.80
2017-05-21T19:29:09.685Z,18.80
2017-05-21T19:31:37.993Z,18.80
2017-05-21T19:34:06.477Z,18.80
2017-05-21T19:36:36.157Z,18.80
2017-05-21T19:39:04.560Z,18.70
2017-05-21T19:41:33.248Z,18.60
2017-05-21T19:44:01.113Z,18.60
2017-05-21T19:46:30.001Z,18.50
2017-05-21T19:48:58.345Z,18.50
2017-05-21T19:51:26.584Z,18.50
2017-05-21T19:53:54.934Z,18.50
2017-05-21T19:56:22.956Z,18.50
2017-05-21T19:58:51.242Z,18.40
2017-05-21T20:01:19.516Z,18.40
2017-05-21T20:03:47.812Z,18.40
2017-05-21T20:06:16.101Z,18.30
2017-05-21T20:08:44.438Z,18.20
2017-05-21T20:11:12.909Z,18.20
2017-05-21T20:13:41.074Z,18.20
2017-05-21T20:16:09.026Z,18.10
2017-05-21T20:18:37.436Z,18.10
2017-05-21T20:21:05.729Z,18.00
2017-05-21T20:23:33.594Z,18.00
2017-05-21T20:26:02.112Z,18.00
2017-05-21T20:28:30.524Z,17.90
2017-05-21T20:30:58.836Z,17.90
2017-05-21T20:33:27.158Z,17.80
2017-05-21T20:35:55.416Z,17.80
2017-05-21T20:38:23.219Z,17.80
2017-05-21T20:40:51.675Z,17.70
2017-05-21T20:43:20.065Z,17.80
2017-05-21T20:45:48.406Z,17.70
2017-05-21T20:48:16.926Z,17.60
2017-05-21T20:50:45.237Z,17.50
2017-05-21T20:53:13.488Z,17.40
2017-05-21T20:55:42.045Z,17.40
2017-05-21T20:58:10.274Z,17.40
2017-05-21T21:00:38.430Z,17.30
2017-05-21T21:03:06.683Z,17.30
2017-05-21T21:05:35.505Z,17.30
2017-05-21T21:08:03.548Z,17.20
2017-05-21T21:10:31.837Z,17.00
2017-05-21T21:12:59.749Z,16.80
2017-05-21T21:15:27.634Z,17.00
2017-05-21T21:17:55.158Z,17.00
2017-05-21T21:20:23.015Z,16.80
2017-05-21T21:22:50.877Z,16.60
2017-05-21T21:25:18.445Z,16.60
2017-05-21T21:27:46.298Z,16.00
2017-05-21T21:30:14.142Z,16.20
2017-05-21T21:32:42.016Z,16.20
2017-05-21T21:35:09.868Z,16.30
2017-05-21T21:37:37.720Z,16.10
2017-05-21T21:40:05.623Z,16.30
2017-05-21T21:42:33.085Z,16.30
2017-05-21T21:45:00.934Z,16.30
2017-05-21T21:50:03.916Z,16.60
2017-05-21T21:52:31.693Z,16.60
2017-05-21T21:54:59.528Z,16.70
2017-05-21T21:57:27.401Z,16.70
2017-05-21T21:59:55.606Z,16.70
2017-05-21T22:02:23.455Z,16.70
2017-05-21T22:04:51.293Z,16.60
2017-05-21T22:07:18.771Z,16.60
2017-05-21T22:09:46.224Z,16.60
2017-05-21T22:12:14.082Z,16.50
2017-05-21T22:14:42.168Z,16.50
2017-05-21T22:17:09.614Z,16.50
2017-05-21T22:19:37.841Z,16.50
2017-05-21T22:22:06.062Z,16.50
2017-05-21T22:24:34.550Z,16.40
2017-05-21T22:27:02.394Z,16.40
2017-05-21T22:29:30.250Z,16.30
2017-05-21T22:31:58.439Z,16.20
2017-05-21T22:34:26.288Z,16.10
2017-05-21T22:36:54.151Z,16.20
2017-05-21T22:39:22.542Z,16.20
2017-05-21T22:41:50.383Z,16.10
2017-05-21T22:44:18.241Z,16.30
2017-05-21T22:46:46.106Z,16.30
2017-05-21T22:49:13.939Z,16.40
2017-05-21T22:51:41.788Z,16.30
2017-05-21T22:54:09.949Z,16.10
2017-05-21T22:56:37.794Z,16.10
2017-05-21T22:59:05.250Z,16.10
2017-05-21T23:01:33.135Z,16.20
2017-05-21T23:04:00.984Z,16.00
2017-05-21T23:06:28.444Z,16.00
2017-05-21T23:08:56.316Z,15.90
2017-05-21T23:11:24.151Z,15.90
2017-05-21T23:13:52.001Z,15.80
2017-05-21T23:16:19.865Z,15.80
2017-05-21T23:18:47.708Z,15.80
2017-05-21T23:21:15.544Z,15.70
2017-05-21T23:23:43.503Z,15.50
2017-05-21T23:26:11.352Z,15.40
2017-05-21T23:28:39.296Z,15.30
2017-05-21T23:31:06.988Z,15.30
2017-05-21T23:33:34.836Z,15.20
2017-05-21T23:36:02.683Z,15.30
2017-05-21T23:38:30.312Z,15.30
2017-05-21T23:40:57.760Z,15.30
2017-05-21T23:43:25.604Z,15.60
2017-05-21T23:45:53.608Z,15.80
2017-05-21T23:48:21.453Z,15.90
2017-05-21T23:50:49.296Z,15.90
2017-05-21T23:53:17.172Z,15.60
2017-05-21T23:55:45.268Z,15.60
2017-05-21T23:58:13.116Z,15.40
